sensor_id;sensor_type;location;lat;lon;timestamp;temperature;humidity
14101;DHT22;7127;49.372;8.166;2022-11-15T00:02:10;13.70;63.00
14101;DHT22;7127;49.372;8.166;2022-11-15T00:04:37;13.80;63.00
14101;DHT22;7127;49.372;8.166;2022-11-15T00:07:03;13.80;63.00
14101;DHT22;7127;49.372;8.166;2022-11-15T00:09:30;13.80;63.00
14101;DHT22;7127;49.372;8.166;2022-11-15T00:11:57;13.80;62.90
14101;DHT22;7127;49.372;8.166;2022-11-15T00:14:25;13.90;63.00
14101;DHT22;7127;49.372;8.166;2022-11-15T00:16:52;13.80;62.80
14101;DHT22;7127;49.372;8.166;2022-11-15T00:19:19;13.90;62.90
14101;DHT22;7127;49.372;8.166;2022-11-15T00:21:46;13.90;62.90
14101;DHT22;7127;49.372;8.166;2022-11-15T00:24:13;13.80;62.80
14101;DHT22;7127;49.372;8.166;2022-11-15T00:26:40;13.90;62.80
14101;DHT22;7127;49.372;8.166;2022-11-15T00:29:07;13.90;62.80
14101;DHT22;7127;49.372;8.166;2022-11-15T00:31:35;13.90;62.80
14101;DHT22;7127;49.372;8.166;2022-11-15T00:34:02;13.80;62.80
14101;DHT22;7127;49.372;8.166;2022-11-15T00:36:28;13.90;62.90
14101;DHT22;7127;49.372;8.166;2022-11-15T00:38:59;13.90;62.90
14101;DHT22;7127;49.372;8.166;2022-11-15T00:41:25;13.90;62.80
14101;DHT22;7127;49.372;8.166;2022-11-15T00:43:52;13.90;62.80
14101;DHT22;7127;49.372;8.166;2022-11-15T00:46:19;13.90;62.70
14101;DHT22;7127;49.372;8.166;2022-11-15T00:48:47;14.00;62.80
14101;DHT22;7127;49.372;8.166;2022-11-15T00:51:14;14.10;62.90
14101;DHT22;7127;49.372;8.166;2022-11-15T00:53:41;13.90;62.70
14101;DHT22;7127;49.372;8.166;2022-11-15T00:56:08;13.90;62.80
14101;DHT22;7127;49.372;8.166;2022-11-15T00:58:35;13.90;62.90
14101;DHT22;7127;49.372;8.166;2022-11-15T01:01:09;13.90;62.90
14101;DHT22;7127;49.372;8.166;2022-11-15T01:03:37;13.90;63.00
14101;DHT22;7127;49.372;8.166;2022-11-15T01:06:07;13.90;63.00
14101;DHT22;7127;49.372;8.166;2022-11-15T01:08:34;13.90;63.00
14101;DHT22;7127;49.372;8.166;2022-11-15T01:11:02;13.90;63.00
14101;DHT22;7127;49.372;8.166;2022-11-15T01:13:30;13.90;63.90
14101;DHT22;7127;49.372;8.166;2022-11-15T01:15:58;14.00;63.10
14101;DHT22;7127;49.372;8.166;2022-11-15T01:18:25;14.00;63.10
14101;DHT22;7127;49.372;8.166;2022-11-15T01:20:52;14.00;63.10
14101;DHT22;7127;49.372;8.166;2022-11-15T01:23:20;14.10;63.10
14101;DHT22;7127;49.372;8.166;2022-11-15T01:25:47;14.00;62.90
14101;DHT22;7127;49.372;8.166;2022-11-15T01:28:14;14.00;62.80
14101;DHT22;7127;49.372;8.166;2022-11-15T01:30:41;14.00;62.70
14101;DHT22;7127;49.372;8.166;2022-11-15T01:33:08;14.00;62.70
14101;DHT22;7127;49.372;8.166;2022-11-15T01:35:38;14.00;62.70
14101;DHT22;7127;49.372;8.166;2022-11-15T01:38:05;13.90;62.70
14101;DHT22;7127;49.372;8.166;2022-11-15T01:40:33;13.90;62.70
14101;DHT22;7127;49.372;8.166;2022-11-15T01:43:19;13.90;62.80
14101;DHT22;7127;49.372;8.166;2022-11-15T01:45:48;13.90;63.00
14101;DHT22;7127;49.372;8.166;2022-11-15T01:48:16;13.90;62.90
14101;DHT22;7127;49.372;8.166;2022-11-15T01:50:43;13.90;62.90
14101;DHT22;7127;49.372;8.166;2022-11-15T01:53:11;13.90;62.90
14101;DHT22;7127;49.372;8.166;2022-11-15T01:55:39;13.90;63.00
14101;DHT22;7127;49.372;8.166;2022-11-15T01:58:06;13.90;63.00
14101;DHT22;7127;49.372;8.166;2022-11-15T02:00:34;14.00;63.10
14101;DHT22;7127;49.372;8.166;2022-11-15T02:03:01;13.90;62.90
14101;DHT22;7127;49.372;8.166;2022-11-15T02:05:30;13.90;62.90
14101;DHT22;7127;49.372;8.166;2022-11-15T02:07:57;13.90;62.90
14101;DHT22;7127;49.372;8.166;2022-11-15T02:10:24;13.90;62.90
14101;DHT22;7127;49.372;8.166;2022-11-15T02:12:53;13.90;62.90
14101;DHT22;7127;49.372;8.166;2022-11-15T02:15:24;14.00;62.90
14101;DHT22;7127;49.372;8.166;2022-11-15T02:18:02;13.90;62.80
14101;DHT22;7127;49.372;8.166;2022-11-15T02:20:52;13.90;62.90
14101;DHT22;7127;49.372;8.166;2022-11-15T02:23:55;14.00;63.00
14101;DHT22;7127;49.372;8.166;2022-11-15T02:26:41;13.90;63.00
14101;DHT22;7127;49.372;8.166;2022-11-15T02:29:14;14.00;63.00
14101;DHT22;7127;49.372;8.166;2022-11-15T02:31:49;13.90;62.90
14101;DHT22;7127;49.372;8.166;2022-11-15T02:34:25;13.90;62.90
14101;DHT22;7127;49.372;8.166;2022-11-15T02:37:00;13.90;63.00
14101;DHT22;7127;49.372;8.166;2022-11-15T02:39:35;13.90;63.00
14101;DHT22;7127;49.372;8.166;2022-11-15T02:42:09;14.00;63.10
14101;DHT22;7127;49.372;8.166;2022-11-15T02:45:08;13.90;63.00
14101;DHT22;7127;49.372;8.166;2022-11-15T02:47:42;14.00;63.10
14101;DHT22;7127;49.372;8.166;2022-11-15T02:50:11;13.90;63.00
14101;DHT22;7127;49.372;8.166;2022-11-15T02:52:39;14.00;63.00
14101;DHT22;7127;49.372;8.166;2022-11-15T02:55:28;13.90;62.80
14101;DHT22;7127;49.372;8.166;2022-11-15T02:58:08;14.00;62.90
14101;DHT22;7127;49.372;8.166;2022-11-15T03:00:44;14.00;62.80
14101;DHT22;7127;49.372;8.166;2022-11-15T03:03:29;13.90;62.60
14101;DHT22;7127;49.372;8.166;2022-11-15T03:06:04;13.90;62.60
14101;DHT22;7127;49.372;8.166;2022-11-15T03:08:36;13.90;62.60
14101;DHT22;7127;49.372;8.166;2022-11-15T03:11:09;13.90;62.50
14101;DHT22;7127;49.372;8.166;2022-11-15T03:13:40;13.90;62.50
14101;DHT22;7127;49.372;8.166;2022-11-15T03:16:14;13.90;62.50
14101;DHT22;7127;49.372;8.166;2022-11-15T03:18:45;13.90;62.70
14101;DHT22;7127;49.372;8.166;2022-11-15T03:21:15;13.80;62.70
14101;DHT22;7127;49.372;8.166;2022-11-15T03:23:47;13.80;62.80
14101;DHT22;7127;49.372;8.166;2022-11-15T03:26:17;13.80;62.80
14101;DHT22;7127;49.372;8.166;2022-11-15T03:28:50;13.80;62.80
14101;DHT22;7127;49.372;8.166;2022-11-15T03:31:19;13.80;62.90
14101;DHT22;7127;49.372;8.166;2022-11-15T03:34:08;13.80;62.90
14101;DHT22;7127;49.372;8.166;2022-11-15T03:36:37;13.90;63.00
14101;DHT22;7127;49.372;8.166;2022-11-15T03:39:06;13.90;63.00
14101;DHT22;7127;49.372;8.166;2022-11-15T03:41:39;14.00;63.10
14101;DHT22;7127;49.372;8.166;2022-11-15T03:44:14;13.80;63.00
14101;DHT22;7127;49.372;8.166;2022-11-15T03:46:47;13.80;62.90
14101;DHT22;7127;49.372;8.166;2022-11-15T03:49:24;13.90;63.00
14101;DHT22;7127;49.372;8.166;2022-11-15T03:51:56;13.90;63.00
14101;DHT22;7127;49.372;8.166;2022-11-15T03:54:23;13.90;63.00
14101;DHT22;7127;49.372;8.166;2022-11-15T03:56:50;13.90;63.00
14101;DHT22;7127;49.372;8.166;2022-11-15T03:59:17;13.90;63.00
14101;DHT22;7127;49.372;8.166;2022-11-15T04:01:44;13.80;62.80
14101;DHT22;7127;49.372;8.166;2022-11-15T04:04:11;13.90;62.90
14101;DHT22;7127;49.372;8.166;2022-11-15T04:06:39;13.90;62.90
14101;DHT22;7127;49.372;8.166;2022-11-15T04:09:06;13.90;62.90
14101;DHT22;7127;49.372;8.166;2022-11-15T04:11:33;14.00;63.00
14101;DHT22;7127;49.372;8.166;2022-11-15T04:14:00;14.00;63.00
14101;DHT22;7127;49.372;8.166;2022-11-15T04:16:27;14.00;63.00
14101;DHT22;7127;49.372;8.166;2022-11-15T04:18:54;14.00;63.00
14101;DHT22;7127;49.372;8.166;2022-11-15T04:21:34;14.00;63.00
14101;DHT22;7127;49.372;8.166;2022-11-15T04:24:20;14.00;63.10
14101;DHT22;7127;49.372;8.166;2022-11-15T04:26:47;14.00;63.10
14101;DHT22;7127;49.372;8.166;2022-11-15T04:29:14;14.00;63.10
14101;DHT22;7127;49.372;8.166;2022-11-15T04:31:58;14.00;63.10
14101;DHT22;7127;49.372;8.166;2022-11-15T04:34:25;14.00;63.10
14101;DHT22;7127;49.372;8.166;2022-11-15T04:36:52;14.00;63.10
14101;DHT22;7127;49.372;8.166;2022-11-15T04:39:37;14.00;63.10
14101;DHT22;7127;49.372;8.166;2022-11-15T04:42:04;14.10;63.20
14101;DHT22;7127;49.372;8.166;2022-11-15T04:44:31;14.10;63.20
14101;DHT22;7127;49.372;8.166;2022-11-15T04:46:58;14.10;63.20
14101;DHT22;7127;49.372;8.166;2022-11-15T04:49:25;14.10;63.30
14101;DHT22;7127;49.372;8.166;2022-11-15T04:51:52;14.10;63.20
14101;DHT22;7127;49.372;8.166;2022-11-15T04:54:19;14.10;63.20
14101;DHT22;7127;49.372;8.166;2022-11-15T04:56:47;14.10;63.20
14101;DHT22;7127;49.372;8.166;2022-11-15T04:59:14;14.10;63.10
14101;DHT22;7127;49.372;8.166;2022-11-15T05:01:41;14.30;63.20
14101;DHT22;7127;49.372;8.166;2022-11-15T05:04:08;14.10;63.10
14101;DHT22;7127;49.372;8.166;2022-11-15T05:06:47;14.10;63.10
14101;DHT22;7127;49.372;8.166;2022-11-15T05:09:14;14.10;63.00
14101;DHT22;7127;49.372;8.166;2022-11-15T05:11:41;14.10;63.10
14101;DHT22;7127;49.372;8.166;2022-11-15T05:14:10;14.10;63.00
14101;DHT22;7127;49.372;8.166;2022-11-15T05:16:37;14.10;63.00
14101;DHT22;7127;49.372;8.166;2022-11-15T05:19:04;14.10;63.00
14101;DHT22;7127;49.372;8.166;2022-11-15T05:21:31;14.10;63.10
14101;DHT22;7127;49.372;8.166;2022-11-15T05:23:58;14.10;63.20
14101;DHT22;7127;49.372;8.166;2022-11-15T05:26:25;14.10;63.30
14101;DHT22;7127;49.372;8.166;2022-11-15T05:28:53;14.00;63.10
14101;DHT22;7127;49.372;8.166;2022-11-15T05:31:22;14.00;63.10
14101;DHT22;7127;49.372;8.166;2022-11-15T05:33:50;14.00;63.20
14101;DHT22;7127;49.372;8.166;2022-11-15T05:36:21;14.10;63.40
14101;DHT22;7127;49.372;8.166;2022-11-15T05:38:50;14.10;63.40
14101;DHT22;7127;49.372;8.166;2022-11-15T05:41:20;14.10;63.50
14101;DHT22;7127;49.372;8.166;2022-11-15T05:43:49;14.10;63.40
14101;DHT22;7127;49.372;8.166;2022-11-15T05:46:17;14.10;63.40
14101;DHT22;7127;49.372;8.166;2022-11-15T05:48:47;14.20;63.50
14101;DHT22;7127;49.372;8.166;2022-11-15T05:51:16;14.10;63.30
14101;DHT22;7127;49.372;8.166;2022-11-15T05:53:44;14.10;63.30
14101;DHT22;7127;49.372;8.166;2022-11-15T05:56:12;14.10;63.20
14101;DHT22;7127;49.372;8.166;2022-11-15T05:58:40;14.20;63.20
14101;DHT22;7127;49.372;8.166;2022-11-15T06:01:07;14.10;63.00
14101;DHT22;7127;49.372;8.166;2022-11-15T06:03:34;14.10;62.90
14101;DHT22;7127;49.372;8.166;2022-11-15T06:06:02;14.10;62.70
14101;DHT22;7127;49.372;8.166;2022-11-15T06:08:29;14.00;62.50
14101;DHT22;7127;49.372;8.166;2022-11-15T06:10:56;14.00;62.40
14101;DHT22;7127;49.372;8.166;2022-11-15T06:13:23;14.00;62.40
14101;DHT22;7127;49.372;8.166;2022-11-15T06:15:50;14.00;62.30
14101;DHT22;7127;49.372;8.166;2022-11-15T06:18:17;13.90;62.30
14101;DHT22;7127;49.372;8.166;2022-11-15T06:20:44;13.90;62.40
14101;DHT22;7127;49.372;8.166;2022-11-15T06:23:12;13.80;62.40
14101;DHT22;7127;49.372;8.166;2022-11-15T06:25:39;13.80;62.60
14101;DHT22;7127;49.372;8.166;2022-11-15T06:28:06;13.80;62.70
14101;DHT22;7127;49.372;8.166;2022-11-15T06:30:33;13.80;62.80
14101;DHT22;7127;49.372;8.166;2022-11-15T06:33:00;13.70;62.80
14101;DHT22;7127;49.372;8.166;2022-11-15T06:35:28;13.80;63.00
14101;DHT22;7127;49.372;8.166;2022-11-15T06:37:59;13.70;63.80
14101;DHT22;7127;49.372;8.166;2022-11-15T06:40:29;13.60;62.90
14101;DHT22;7127;49.372;8.166;2022-11-15T06:42:58;13.60;63.00
14101;DHT22;7127;49.372;8.166;2022-11-15T06:45:25;13.70;63.10
14101;DHT22;7127;49.372;8.166;2022-11-15T06:47:52;13.60;62.90
14101;DHT22;7127;49.372;8.166;2022-11-15T06:50:19;13.60;62.90
14101;DHT22;7127;49.372;8.166;2022-11-15T06:52:46;13.60;62.90
14101;DHT22;7127;49.372;8.166;2022-11-15T06:55:13;13.60;63.00
14101;DHT22;7127;49.372;8.166;2022-11-15T06:57:48;13.50;63.70
14101;DHT22;7127;49.372;8.166;2022-11-15T07:00:16;13.50;63.10
14101;DHT22;7127;49.372;8.166;2022-11-15T07:02:43;13.50;63.10
14101;DHT22;7127;49.372;8.166;2022-11-15T07:05:11;13.50;63.10
14101;DHT22;7127;49.372;8.166;2022-11-15T07:07:38;13.60;63.20
14101;DHT22;7127;49.372;8.166;2022-11-15T07:10:06;13.50;63.10
14101;DHT22;7127;49.372;8.166;2022-11-15T07:12:33;13.50;63.20
14101;DHT22;7127;49.372;8.166;2022-11-15T07:15:02;13.50;64.00
14101;DHT22;7127;49.372;8.166;2022-11-15T07:17:29;13.50;63.40
14101;DHT22;7127;49.372;8.166;2022-11-15T07:19:56;13.50;63.40
14101;DHT22;7127;49.372;8.166;2022-11-15T07:22:22;13.50;63.40
14101;DHT22;7127;49.372;8.166;2022-11-15T07:24:49;13.50;63.50
14101;DHT22;7127;49.372;8.166;2022-11-15T07:27:16;13.60;63.80
14101;DHT22;7127;49.372;8.166;2022-11-15T07:29:43;13.60;63.90
14101;DHT22;7127;49.372;8.166;2022-11-15T07:32:11;13.60;64.50
14101;DHT22;7127;49.372;8.166;2022-11-15T07:34:38;13.60;63.70
14101;DHT22;7127;49.372;8.166;2022-11-15T07:37:05;13.60;63.60
14101;DHT22;7127;49.372;8.166;2022-11-15T07:39:32;13.60;63.60
14101;DHT22;7127;49.372;8.166;2022-11-15T07:41:59;13.60;63.60
14101;DHT22;7127;49.372;8.166;2022-11-15T07:44:43;13.60;63.70
14101;DHT22;7127;49.372;8.166;2022-11-15T07:47:11;13.60;63.80
14101;DHT22;7127;49.372;8.166;2022-11-15T07:49:38;13.70;63.90
14101;DHT22;7127;49.372;8.166;2022-11-15T07:52:05;13.60;63.80
14101;DHT22;7127;49.372;8.166;2022-11-15T07:54:32;13.70;64.00
14101;DHT22;7127;49.372;8.166;2022-11-15T07:56:59;13.70;63.90
14101;DHT22;7127;49.372;8.166;2022-11-15T07:59:26;13.70;63.80
14101;DHT22;7127;49.372;8.166;2022-11-15T08:01:53;13.70;63.70
14101;DHT22;7127;49.372;8.166;2022-11-15T08:04:21;13.80;63.90
14101;DHT22;7127;49.372;8.166;2022-11-15T08:06:48;13.70;63.90
14101;DHT22;7127;49.372;8.166;2022-11-15T08:09:15;13.80;64.20
14101;DHT22;7127;49.372;8.166;2022-11-15T08:11:42;13.70;64.00
14101;DHT22;7127;49.372;8.166;2022-11-15T08:14:09;13.80;64.20
14101;DHT22;7127;49.372;8.166;2022-11-15T08:16:36;13.80;64.30
14101;DHT22;7127;49.372;8.166;2022-11-15T08:19:03;13.80;64.50
14101;DHT22;7127;49.372;8.166;2022-11-15T08:21:31;13.80;64.50
14101;DHT22;7127;49.372;8.166;2022-11-15T08:23:58;13.90;64.80
14101;DHT22;7127;49.372;8.166;2022-11-15T08:26:25;13.90;64.80
14101;DHT22;7127;49.372;8.166;2022-11-15T08:28:55;13.80;64.70
14101;DHT22;7127;49.372;8.166;2022-11-15T08:31:22;14.00;65.00
14101;DHT22;7127;49.372;8.166;2022-11-15T08:33:49;14.00;65.00
14101;DHT22;7127;49.372;8.166;2022-11-15T08:36:16;14.00;65.00
14101;DHT22;7127;49.372;8.166;2022-11-15T08:38:44;14.10;65.10
14101;DHT22;7127;49.372;8.166;2022-11-15T08:41:14;14.30;65.30
14101;DHT22;7127;49.372;8.166;2022-11-15T08:43:42;14.20;65.20
14101;DHT22;7127;49.372;8.166;2022-11-15T08:46:10;14.30;65.20
14101;DHT22;7127;49.372;8.166;2022-11-15T08:48:38;14.40;65.20
14101;DHT22;7127;49.372;8.166;2022-11-15T08:51:05;14.40;65.10
14101;DHT22;7127;49.372;8.166;2022-11-15T08:53:32;14.50;65.10
14101;DHT22;7127;49.372;8.166;2022-11-15T08:56:01;14.50;65.00
14101;DHT22;7127;49.372;8.166;2022-11-15T08:58:28;14.50;64.80
14101;DHT22;7127;49.372;8.166;2022-11-15T09:00:55;14.60;65.00
14101;DHT22;7127;49.372;8.166;2022-11-15T09:03:22;14.60;64.70
14101;DHT22;7127;49.372;8.166;2022-11-15T09:05:54;14.70;64.70
14101;DHT22;7127;49.372;8.166;2022-11-15T09:08:21;14.70;64.60
14101;DHT22;7127;49.372;8.166;2022-11-15T09:10:48;14.70;64.50
14101;DHT22;7127;49.372;8.166;2022-11-15T09:13:16;14.70;64.40
14101;DHT22;7127;49.372;8.166;2022-11-15T09:15:43;14.80;64.60
14101;DHT22;7127;49.372;8.166;2022-11-15T09:18:10;14.90;64.70
14101;DHT22;7127;49.372;8.166;2022-11-15T09:20:37;14.80;64.50
14101;DHT22;7127;49.372;8.166;2022-11-15T09:23:05;14.70;64.30
14101;DHT22;7127;49.372;8.166;2022-11-15T09:25:32;14.90;64.50
14101;DHT22;7127;49.372;8.166;2022-11-15T09:27:59;14.90;64.50
14101;DHT22;7127;49.372;8.166;2022-11-15T09:30:27;14.90;64.50
14101;DHT22;7127;49.372;8.166;2022-11-15T09:32:55;14.90;64.60
14101;DHT22;7127;49.372;8.166;2022-11-15T09:35:27;15.00;64.60
14101;DHT22;7127;49.372;8.166;2022-11-15T09:37:57;15.00;64.60
14101;DHT22;7127;49.372;8.166;2022-11-15T09:40:24;15.00;64.40
14101;DHT22;7127;49.372;8.166;2022-11-15T09:43:04;15.10;64.40
14101;DHT22;7127;49.372;8.166;2022-11-15T09:45:41;15.10;64.40
14101;DHT22;7127;49.372;8.166;2022-11-15T09:51:17;15.10;64.30
14101;DHT22;7127;49.372;8.166;2022-11-15T09:53:49;15.20;64.40
14101;DHT22;7127;49.372;8.166;2022-11-15T09:56:22;15.20;64.10
14101;DHT22;7127;49.372;8.166;2022-11-15T09:58:56;15.20;64.00
14101;DHT22;7127;49.372;8.166;2022-11-15T10:01:36;15.20;63.90
14101;DHT22;7127;49.372;8.166;2022-11-15T10:04:05;15.40;64.00
14101;DHT22;7127;49.372;8.166;2022-11-15T10:06:35;15.30;63.90
14101;DHT22;7127;49.372;8.166;2022-11-15T10:09:07;15.40;64.00
14101;DHT22;7127;49.372;8.166;2022-11-15T10:11:37;15.30;63.90
14101;DHT22;7127;49.372;8.166;2022-11-15T10:14:09;15.30;63.90
14101;DHT22;7127;49.372;8.166;2022-11-15T10:17:05;15.30;63.80
14101;DHT22;7127;49.372;8.166;2022-11-15T10:19:45;15.30;63.70
14101;DHT22;7127;49.372;8.166;2022-11-15T10:22:23;15.30;63.70
14101;DHT22;7127;49.372;8.166;2022-11-15T10:25:00;15.40;63.80
14101;DHT22;7127;49.372;8.166;2022-11-15T10:27:27;15.40;63.80
14101;DHT22;7127;49.372;8.166;2022-11-15T10:29:55;15.40;63.80
14101;DHT22;7127;49.372;8.166;2022-11-15T10:32:24;15.30;63.80
14101;DHT22;7127;49.372;8.166;2022-11-15T10:34:52;15.40;64.00
14101;DHT22;7127;49.372;8.166;2022-11-15T10:37:28;15.40;64.10
14101;DHT22;7127;49.372;8.166;2022-11-15T10:40:03;15.40;64.10
14101;DHT22;7127;49.372;8.166;2022-11-15T10:42:30;15.60;64.40
14101;DHT22;7127;49.372;8.166;2022-11-15T10:44:57;15.60;64.40
14101;DHT22;7127;49.372;8.166;2022-11-15T10:47:28;15.70;64.60
14101;DHT22;7127;49.372;8.166;2022-11-15T10:49:59;15.60;64.50
14101;DHT22;7127;49.372;8.166;2022-11-15T10:52:26;15.70;64.60
14101;DHT22;7127;49.372;8.166;2022-11-15T10:54:57;15.70;64.50
14101;DHT22;7127;49.372;8.166;2022-11-15T10:57:28;15.80;64.60
14101;DHT22;7127;49.372;8.166;2022-11-15T10:59:58;16.00;64.70
14101;DHT22;7127;49.372;8.166;2022-11-15T11:02:32;15.90;64.60
14101;DHT22;7127;49.372;8.166;2022-11-15T11:05:01;16.00;64.60
14101;DHT22;7127;49.372;8.166;2022-11-15T11:07:30;16.00;64.60
14101;DHT22;7127;49.372;8.166;2022-11-15T11:10:03;16.10;64.60
14101;DHT22;7127;49.372;8.166;2022-11-15T11:12:32;16.10;64.50
14101;DHT22;7127;49.372;8.166;2022-11-15T11:15:01;16.20;64.50
14101;DHT22;7127;49.372;8.166;2022-11-15T11:17:42;16.30;64.60
14101;DHT22;7127;49.372;8.166;2022-11-15T11:20:20;16.40;64.60
14101;DHT22;7127;49.372;8.166;2022-11-15T11:25:43;16.40;64.30
14101;DHT22;7127;49.372;8.166;2022-11-15T11:28:24;16.50;64.30
14101;DHT22;7127;49.372;8.166;2022-11-15T11:31:00;16.60;64.20
14101;DHT22;7127;49.372;8.166;2022-11-15T11:33:38;16.60;64.20
14101;DHT22;7127;49.372;8.166;2022-11-15T11:36:16;16.70;64.40
14101;DHT22;7127;49.372;8.166;2022-11-15T11:38:56;16.70;64.30
14101;DHT22;7127;49.372;8.166;2022-11-15T11:41:51;16.80;64.20
14101;DHT22;7127;49.372;8.166;2022-11-15T11:44:34;16.80;64.00
14101;DHT22;7127;49.372;8.166;2022-11-15T11:47:09;16.90;64.00
14101;DHT22;7127;49.372;8.166;2022-11-15T11:49:42;16.90;64.00
14101;DHT22;7127;49.372;8.166;2022-11-15T11:52:15;16.90;64.00
14101;DHT22;7127;49.372;8.166;2022-11-15T11:54:51;16.90;64.00
14101;DHT22;7127;49.372;8.166;2022-11-15T11:57:27;17.00;64.00
14101;DHT22;7127;49.372;8.166;2022-11-15T12:00:00;17.00;64.00
14101;DHT22;7127;49.372;8.166;2022-11-15T12:02:29;17.10;64.00
14101;DHT22;7127;49.372;8.166;2022-11-15T12:05:05;17.10;64.00
14101;DHT22;7127;49.372;8.166;2022-11-15T12:07:35;17.20;63.90
14101;DHT22;7127;49.372;8.166;2022-11-15T12:10:17;17.20;64.00
14101;DHT22;7127;49.372;8.166;2022-11-15T12:12:51;17.30;63.90
14101;DHT22;7127;49.372;8.166;2022-11-15T12:15:22;17.30;63.90
14101;DHT22;7127;49.372;8.166;2022-11-15T12:17:50;17.30;63.90
14101;DHT22;7127;49.372;8.166;2022-11-15T12:20:20;17.20;63.70
14101;DHT22;7127;49.372;8.166;2022-11-15T12:22:53;17.30;63.60
14101;DHT22;7127;49.372;8.166;2022-11-15T12:25:24;17.40;63.50
14101;DHT22;7127;49.372;8.166;2022-11-15T12:27:55;17.40;63.40
14101;DHT22;7127;49.372;8.166;2022-11-15T12:30:38;17.50;63.40
14101;DHT22;7127;49.372;8.166;2022-11-15T12:33:34;17.50;63.30
14101;DHT22;7127;49.372;8.166;2022-11-15T12:36:04;17.50;63.00
14101;DHT22;7127;49.372;8.166;2022-11-15T12:38:55;17.50;63.00
14101;DHT22;7127;49.372;8.166;2022-11-15T12:41:24;17.40;62.70
14101;DHT22;7127;49.372;8.166;2022-11-15T12:43:52;17.50;63.00
14101;DHT22;7127;49.372;8.166;2022-11-15T12:49:43;17.50;62.90
14101;DHT22;7127;49.372;8.166;2022-11-15T12:52:12;17.50;62.80
14101;DHT22;7127;49.372;8.166;2022-11-15T12:54:59;17.50;63.00
14101;DHT22;7127;49.372;8.166;2022-11-15T12:57:36;17.60;62.90
14101;DHT22;7127;49.372;8.166;2022-11-15T13:03:21;17.60;62.90
14101;DHT22;7127;49.372;8.166;2022-11-15T13:08:44;17.60;62.70
14101;DHT22;7127;49.372;8.166;2022-11-15T13:11:48;17.70;62.90
14101;DHT22;7127;49.372;8.166;2022-11-15T13:14:48;17.70;62.50
14101;DHT22;7127;49.372;8.166;2022-11-15T13:17:33;17.60;62.40
14101;DHT22;7127;49.372;8.166;2022-11-15T13:20:19;17.60;62.50
14101;DHT22;7127;49.372;8.166;2022-11-15T13:22:48;17.70;62.60
14101;DHT22;7127;49.372;8.166;2022-11-15T13:28:21;17.70;63.40
14101;DHT22;7127;49.372;8.166;2022-11-15T13:30:51;17.70;62.50
14101;DHT22;7127;49.372;8.166;2022-11-15T13:33:20;17.70;62.50
14101;DHT22;7127;49.372;8.166;2022-11-15T13:35:51;17.70;62.50
14101;DHT22;7127;49.372;8.166;2022-11-15T13:38:25;17.70;62.50
14101;DHT22;7127;49.372;8.166;2022-11-15T13:40:54;17.70;62.50
14101;DHT22;7127;49.372;8.166;2022-11-15T13:43:31;17.80;62.60
14101;DHT22;7127;49.372;8.166;2022-11-15T13:46:10;17.70;62.50
14101;DHT22;7127;49.372;8.166;2022-11-15T13:48:37;17.70;62.50
14101;DHT22;7127;49.372;8.166;2022-11-15T13:51:07;17.70;62.50
14101;DHT22;7127;49.372;8.166;2022-11-15T13:53:37;17.70;62.50
14101;DHT22;7127;49.372;8.166;2022-11-15T13:56:07;17.70;62.50
14101;DHT22;7127;49.372;8.166;2022-11-15T13:58:37;17.80;62.50
14101;DHT22;7127;49.372;8.166;2022-11-15T14:01:05;17.70;62.40
14101;DHT22;7127;49.372;8.166;2022-11-15T14:03:35;17.60;62.30
14101;DHT22;7127;49.372;8.166;2022-11-15T14:06:09;17.60;62.30
14101;DHT22;7127;49.372;8.166;2022-11-15T14:08:37;17.60;62.30
14101;DHT22;7127;49.372;8.166;2022-11-15T14:11:15;17.60;62.30
14101;DHT22;7127;49.372;8.166;2022-11-15T14:14:11;17.60;62.30
14101;DHT22;7127;49.372;8.166;2022-11-15T14:16:40;17.50;62.00
14101;DHT22;7127;49.372;8.166;2022-11-15T14:19:11;17.50;62.20
14101;DHT22;7127;49.372;8.166;2022-11-15T14:22:08;17.50;62.20
14101;DHT22;7127;49.372;8.166;2022-11-15T14:24:36;17.50;62.00
14101;DHT22;7127;49.372;8.166;2022-11-15T14:27:22;17.40;62.20
14101;DHT22;7127;49.372;8.166;2022-11-15T14:29:49;17.40;62.00
14101;DHT22;7127;49.372;8.166;2022-11-15T14:32:19;17.40;62.20
14101;DHT22;7127;49.372;8.166;2022-11-15T14:34:46;17.40;62.20
14101;DHT22;7127;49.372;8.166;2022-11-15T14:37:21;17.50;62.40
14101;DHT22;7127;49.372;8.166;2022-11-15T14:39:48;17.40;62.20
14101;DHT22;7127;49.372;8.166;2022-11-15T14:42:17;17.20;61.90
14101;DHT22;7127;49.372;8.166;2022-11-15T14:44:44;17.30;62.00
14101;DHT22;7127;49.372;8.166;2022-11-15T14:47:11;17.30;62.10
14101;DHT22;7127;49.372;8.166;2022-11-15T14:49:38;17.40;62.20
14101;DHT22;7127;49.372;8.166;2022-11-15T14:52:26;17.20;62.00
14101;DHT22;7127;49.372;8.166;2022-11-15T14:54:54;17.30;62.10
14101;DHT22;7127;49.372;8.166;2022-11-15T14:57:22;17.30;62.10
14101;DHT22;7127;49.372;8.166;2022-11-15T14:59:49;17.20;62.00
14101;DHT22;7127;49.372;8.166;2022-11-15T15:02:18;17.30;62.10
14101;DHT22;7127;49.372;8.166;2022-11-15T15:04:46;17.20;62.00
14101;DHT22;7127;49.372;8.166;2022-11-15T15:07:13;17.10;61.90
14101;DHT22;7127;49.372;8.166;2022-11-15T15:09:40;17.10;61.90
14101;DHT22;7127;49.372;8.166;2022-11-15T15:12:15;17.10;61.90
14101;DHT22;7127;49.372;8.166;2022-11-15T15:14:43;17.10;61.90
14101;DHT22;7127;49.372;8.166;2022-11-15T15:17:11;17.10;61.90
14101;DHT22;7127;49.372;8.166;2022-11-15T15:19:38;17.20;62.10
14101;DHT22;7127;49.372;8.166;2022-11-15T15:22:05;17.00;61.90
14101;DHT22;7127;49.372;8.166;2022-11-15T15:24:32;17.10;62.00
14101;DHT22;7127;49.372;8.166;2022-11-15T15:26:59;17.00;61.90
14101;DHT22;7127;49.372;8.166;2022-11-15T15:29:26;17.00;61.90
14101;DHT22;7127;49.372;8.166;2022-11-15T15:31:54;17.00;61.90
14101;DHT22;7127;49.372;8.166;2022-11-15T15:34:22;16.90;61.90
14101;DHT22;7127;49.372;8.166;2022-11-15T15:36:49;16.90;62.00
14101;DHT22;7127;49.372;8.166;2022-11-15T15:39:16;16.90;62.00
14101;DHT22;7127;49.372;8.166;2022-11-15T15:41:42;16.80;62.00
14101;DHT22;7127;49.372;8.166;2022-11-15T15:44:09;16.80;62.00
14101;DHT22;7127;49.372;8.166;2022-11-15T15:46:37;16.70;61.90
14101;DHT22;7127;49.372;8.166;2022-11-15T15:49:07;16.80;62.10
14101;DHT22;7127;49.372;8.166;2022-11-15T15:51:35;16.70;62.00
14101;DHT22;7127;49.372;8.166;2022-11-15T15:54:03;16.70;62.00
14101;DHT22;7127;49.372;8.166;2022-11-15T15:56:30;16.70;62.10
14101;DHT22;7127;49.372;8.166;2022-11-15T15:58:56;16.60;62.00
14101;DHT22;7127;49.372;8.166;2022-11-15T16:01:23;16.60;62.00
14101;DHT22;7127;49.372;8.166;2022-11-15T16:03:51;16.60;62.00
14101;DHT22;7127;49.372;8.166;2022-11-15T16:06:39;16.60;62.10
14101;DHT22;7127;49.372;8.166;2022-11-15T16:09:12;16.50;62.10
14101;DHT22;7127;49.372;8.166;2022-11-15T16:11:40;16.50;62.20
14101;DHT22;7127;49.372;8.166;2022-11-15T16:14:07;16.50;62.20
14101;DHT22;7127;49.372;8.166;2022-11-15T16:16:35;16.50;62.30
14101;DHT22;7127;49.372;8.166;2022-11-15T16:19:02;16.50;62.30
14101;DHT22;7127;49.372;8.166;2022-11-15T16:21:29;16.40;62.30
14101;DHT22;7127;49.372;8.166;2022-11-15T16:23:58;16.40;62.30
14101;DHT22;7127;49.372;8.166;2022-11-15T16:26:26;16.40;62.30